createdAt,value
2022-10-13T00:03:02.231Z,10.68
2022-10-13T00:06:06.353Z,10.55
2022-10-13T00:09:07.827Z,10.80
2022-10-13T00:12:09.284Z,11.75
2022-10-13T00:15:10.801Z,11.48
2022-10-13T00:18:12.508Z,12.43
2022-10-13T00:21:17.073Z,11.07
2022-10-13T00:24:20.030Z,11.27
2022-10-13T00:27:21.530Z,11.40
2022-10-13T00:30:23.091Z,10.77
2022-10-13T00:33:25.629Z,10.52
2022-10-13T00:36:28.082Z,10.32
2022-10-13T00:39:29.578Z,10.85
2022-10-13T00:42:31.015Z,11.00
2022-10-13T00:45:34.167Z,11.60
2022-10-13T00:48:35.723Z,10.63
2022-10-13T00:51:42.452Z,10.90
2022-10-13T00:54:44.994Z,10.45
2022-10-13T00:57:54.441Z,11.45
2022-10-13T01:01:04.918Z,10.70
2022-10-13T01:04:06.586Z,10.93
2022-10-13T01:07:08.993Z,10.13
2022-10-13T01:10:10.511Z,10.25
2022-10-13T01:13:28.831Z,10.57
2022-10-13T01:17:11.212Z,10.48
2022-10-13T01:20:57.630Z,10.18
2022-10-13T01:24:11.392Z,10.38
2022-10-13T01:27:16.158Z,9.77
2022-10-13T01:30:22.685Z,9.77
2022-10-13T01:33:48.784Z,10.45
2022-10-13T01:37:19.025Z,10.18
2022-10-13T01:40:38.256Z,9.07
2022-10-13T01:43:46.727Z,9.52
2022-10-13T01:46:50.648Z,10.05
2022-10-13T01:49:54.467Z,10.07
2022-10-13T01:52:59.545Z,9.70
2022-10-13T01:56:01.920Z,10.15
2022-10-13T01:59:09.801Z,10.25
2022-10-13T02:02:26.103Z,10.27
2022-10-13T02:05:51.804Z,9.50
2022-10-13T02:09:19.439Z,10.20
2022-10-13T02:12:29.967Z,9.30
2022-10-13T02:15:38.266Z,9.75
2022-10-13T02:18:44.049Z,10.07
2022-10-13T02:21:47.067Z,8.77
2022-10-13T02:24:48.907Z,9.70
2022-10-13T02:27:50.674Z,9.70
2022-10-13T02:30:52.264Z,9.25
2022-10-13T02:33:53.685Z,9.13
2022-10-13T02:36:55.087Z,9.33
2022-10-13T02:39:56.584Z,9.30
2022-10-13T02:42:57.996Z,9.47
2022-10-13T02:45:59.501Z,9.00
2022-10-13T02:49:01.616Z,9.37
2022-10-13T02:52:03.508Z,10.32
2022-10-13T02:55:05.807Z,9.43
2022-10-13T02:58:07.278Z,10.02
2022-10-13T03:01:14.860Z,9.85
2022-10-13T03:04:16.490Z,8.52
2022-10-13T03:07:17.935Z,9.25
2022-10-13T03:10:19.593Z,9.43
2022-10-13T03:13:22.165Z,8.80
2022-10-13T03:16:23.671Z,8.73
2022-10-13T03:19:25.139Z,9.68
2022-10-13T03:22:26.599Z,9.90
2022-10-13T03:25:28.444Z,9.70
2022-10-13T03:28:30.263Z,9.93
2022-10-13T03:31:31.900Z,9.65
2022-10-13T03:34:36.639Z,10.10
2022-10-13T03:37:38.056Z,10.45
2022-10-13T03:40:39.506Z,10.17
2022-10-13T03:43:42.025Z,10.17
2022-10-13T03:46:43.496Z,10.43
2022-10-13T03:49:44.941Z,10.60
2022-10-13T03:52:46.801Z,10.07
2022-10-13T03:55:52.852Z,10.13
2022-10-13T03:58:59.745Z,10.90
2022-10-13T04:02:01.196Z,10.65
2022-10-13T04:05:02.639Z,10.98
2022-10-13T04:08:04.524Z,10.63
2022-10-13T04:11:08.184Z,11.45
2022-10-13T04:14:12.708Z,10.20
2022-10-13T04:17:14.137Z,11.35
2022-10-13T04:20:15.707Z,11.63
2022-10-13T04:23:17.120Z,12.18
2022-10-13T04:26:24.119Z,11.60
2022-10-13T04:29:25.619Z,11.13
2022-10-13T04:32:28.253Z,11.80
2022-10-13T04:35:29.894Z,13.10
2022-10-13T04:38:31.302Z,12.48
2022-10-13T04:41:32.721Z,12.27
2022-10-13T04:44:34.132Z,12.70
2022-10-13T04:47:37.909Z,12.88
2022-10-13T04:50:39.357Z,12.00
2022-10-13T04:53:41.936Z,11.30
2022-10-13T04:56:49.505Z,12.10
2022-10-13T04:59:51.294Z,14.45
2022-10-13T05:02:52.756Z,14.18
2022-10-13T05:05:54.180Z,14.30
2022-10-13T05:08:56.416Z,14.03
2022-10-13T05:11:58.001Z,13.82
2022-10-13T05:14:59.730Z,13.77
2022-10-13T05:18:01.218Z,13.57
2022-10-13T05:21:10.303Z,13.32
2022-10-13T05:24:13.600Z,13.43
2022-10-13T05:27:15.485Z,11.75
2022-10-13T05:30:16.908Z,11.10
2022-10-13T05:33:18.417Z,11.20
2022-10-13T05:36:22.872Z,10.83
2022-10-13T05:39:24.484Z,10.10
2022-10-13T05:42:29.303Z,10.23
2022-10-13T05:45:32.864Z,10.52
2022-10-13T05:48:35.125Z,10.65
2022-10-13T05:54:56.118Z,10.93
2022-10-13T05:57:58.598Z,10.07
2022-10-13T06:01:00.409Z,10.93
2022-10-13T06:04:06.628Z,10.82
2022-10-13T06:07:09.461Z,11.07
2022-10-13T06:10:12.692Z,10.23
2022-10-13T06:13:14.089Z,10.13
2022-10-13T06:16:15.498Z,11.03
2022-10-13T06:19:17.072Z,9.97
2022-10-13T06:22:18.979Z,10.45
2022-10-13T06:25:20.721Z,10.32
2022-10-13T06:28:22.458Z,10.15
2022-10-13T06:31:23.988Z,10.32
2022-10-13T06:34:25.389Z,9.87
2022-10-13T06:37:27.642Z,10.00
2022-10-13T06:43:38.654Z,9.68
2022-10-13T06:46:44.161Z,10.63
2022-10-13T06:49:45.713Z,10.00
2022-10-13T06:52:47.852Z,9.65
2022-10-13T06:55:52.505Z,10.57
2022-10-13T06:58:54.158Z,9.88
2022-10-13T07:01:55.713Z,10.27
2022-10-13T07:07:59.325Z,9.80
2022-10-13T07:11:11.666Z,9.90
2022-10-13T07:14:16.686Z,9.90
2022-10-13T07:17:18.483Z,10.70
2022-10-13T07:20:21.371Z,10.40
2022-10-13T07:23:22.811Z,11.00
2022-10-13T07:26:24.258Z,10.00
2022-10-13T07:29:25.702Z,9.90
2022-10-13T07:32:27.148Z,9.97
2022-10-13T07:35:30.874Z,10.73
2022-10-13T07:38:32.612Z,10.70
2022-10-13T07:41:34.580Z,10.80
2022-10-13T07:44:36.024Z,11.05
2022-10-13T07:47:37.499Z,10.97
2022-10-13T07:50:38.946Z,10.38
2022-10-13T07:53:42.079Z,16.37
2022-10-13T07:56:43.499Z,27.10
2022-10-13T07:59:45.396Z,13.53
2022-10-13T08:02:51.313Z,19.13
2022-10-13T08:05:53.308Z,24.27
2022-10-13T08:08:55.086Z,13.75
2022-10-13T08:12:00.744Z,18.55
2022-10-13T08:15:06.285Z,11.90
2022-10-13T08:18:12.735Z,11.15
2022-10-13T08:21:45.918Z,9.77
2022-10-13T08:24:38.955Z,10.25
2022-10-13T08:27:50.808Z,10.93
2022-10-13T08:30:57.666Z,10.25
2022-10-13T08:33:59.260Z,10.00
2022-10-13T08:37:00.892Z,10.25
2022-10-13T08:40:02.801Z,11.00
2022-10-13T08:43:09.116Z,10.43
2022-10-13T08:46:13.360Z,10.32
2022-10-13T08:49:16.485Z,9.93
2022-10-13T08:52:21.588Z,9.32
2022-10-13T08:55:41.695Z,10.68
2022-10-13T08:58:43.736Z,8.98
2022-10-13T09:01:51.764Z,9.18
2022-10-13T09:04:53.629Z,9.23
2022-10-13T09:07:57.198Z,9.23
2022-10-13T09:11:02.717Z,8.80
2022-10-13T09:14:10.483Z,9.38
2022-10-13T09:17:23.571Z,8.30
2022-10-13T09:20:27.655Z,8.57
2022-10-13T09:23:29.159Z,9.07
2022-10-13T09:26:37.588Z,8.45
2022-10-13T09:29:39.970Z,9.15
2022-10-13T09:32:42.179Z,8.88
2022-10-13T09:36:06.794Z,9.38
2022-10-13T09:39:16.393Z,8.73
2022-10-13T09:42:27.087Z,9.15
2022-10-13T09:45:32.213Z,10.13
2022-10-13T09:48:37.871Z,10.40
2022-10-13T09:51:45.407Z,9.95
2022-10-13T09:55:00.780Z,11.07
2022-10-13T09:58:37.121Z,10.75
2022-10-13T10:01:44.824Z,12.77
2022-10-13T10:04:47.324Z,14.80
2022-10-13T10:07:49.047Z,14.80
2022-10-13T10:10:50.534Z,14.90
2022-10-13T10:13:52.759Z,23.63
2022-10-13T10:20:31.602Z,16.33
2022-10-13T10:23:42.451Z,17.77
2022-10-13T10:26:55.308Z,15.50
2022-10-13T10:30:04.649Z,15.63
2022-10-13T10:33:13.548Z,16.52
2022-10-13T10:36:22.222Z,15.60
2022-10-13T10:39:32.243Z,19.80
2022-10-13T10:42:51.840Z,15.45
2022-10-13T10:45:57.530Z,15.40
2022-10-13T10:49:03.816Z,15.20
2022-10-13T10:52:16.507Z,15.30
2022-10-13T10:55:52.384Z,15.38
2022-10-13T10:59:29.215Z,26.05
2022-10-13T11:02:42.807Z,18.25
2022-10-13T11:06:05.066Z,20.95
2022-10-13T11:09:11.269Z,16.58
2022-10-13T11:12:21.720Z,16.65
2022-10-13T11:15:28.792Z,16.45
2022-10-13T11:18:52.362Z,13.77
2022-10-13T11:21:57.744Z,13.90
2022-10-13T11:25:39.914Z,13.52
2022-10-13T11:28:42.602Z,12.77
2022-10-13T11:31:53.359Z,12.32
2022-10-13T11:35:01.894Z,12.10
2022-10-13T11:38:20.537Z,11.32
2022-10-13T11:41:32.175Z,10.35
2022-10-13T11:44:36.654Z,10.20
2022-10-13T11:48:00.126Z,10.48
2022-10-13T11:51:40.243Z,11.23
2022-10-13T11:54:50.349Z,9.80
2022-10-13T11:57:51.745Z,9.35
2022-10-13T12:01:02.149Z,8.43
2022-10-13T12:04:14.541Z,9.00
2022-10-13T12:07:17.283Z,8.10
2022-10-13T12:10:25.225Z,8.50
2022-10-13T12:13:30.007Z,8.38
2022-10-13T12:16:31.531Z,7.80
2022-10-13T12:19:33.147Z,9.15
2022-10-13T12:22:40.041Z,8.25
2022-10-13T12:25:47.992Z,9.18
2022-10-13T12:28:50.231Z,10.00
2022-10-13T12:31:52.078Z,8.80
2022-10-13T12:34:53.823Z,9.00
2022-10-13T12:37:57.856Z,8.80
2022-10-13T12:40:59.536Z,9.15
2022-10-13T12:44:05.703Z,9.07
2022-10-13T12:47:38.259Z,9.13
2022-10-13T12:50:39.966Z,9.38
2022-10-13T12:53:41.676Z,9.25
2022-10-13T12:56:45.197Z,24.60
2022-10-13T12:59:47.089Z,9.95
2022-10-13T13:02:54.474Z,9.23
2022-10-13T13:06:29.822Z,9.40
2022-10-13T13:09:34.191Z,9.40
2022-10-13T13:12:37.035Z,9.30
2022-10-13T13:15:41.835Z,8.98
2022-10-13T13:18:45.524Z,8.88
2022-10-13T13:21:47.145Z,9.15
2022-10-13T13:24:51.124Z,8.98
2022-10-13T13:27:53.214Z,9.32
2022-10-13T13:30:54.686Z,9.05
2022-10-13T13:33:56.080Z,9.73
2022-10-13T13:36:57.593Z,9.90
2022-10-13T13:39:59.682Z,8.40
2022-10-13T13:46:07.619Z,8.23
2022-10-13T13:49:11.592Z,8.13
2022-10-13T13:52:13.040Z,8.05
2022-10-13T13:55:14.756Z,7.68
2022-10-13T13:58:16.343Z,7.18
2022-10-13T14:01:17.847Z,7.50
2022-10-13T14:04:19.323Z,7.05
2022-10-13T14:07:21.101Z,7.40
2022-10-13T14:10:26.521Z,6.95
2022-10-13T14:13:27.929Z,7.03
2022-10-13T14:16:29.462Z,6.85
2022-10-13T14:19:31.963Z,6.80
2022-10-13T14:22:33.825Z,7.07
2022-10-13T14:25:38.616Z,7.40
2022-10-13T14:28:42.615Z,7.57
2022-10-13T14:31:44.359Z,7.05
2022-10-13T14:34:45.831Z,7.20
2022-10-13T14:37:47.279Z,7.30
2022-10-13T14:40:48.769Z,7.30
2022-10-13T14:43:56.940Z,7.97
2022-10-13T14:46:58.574Z,7.25
2022-10-13T14:50:03.381Z,7.68
2022-10-13T14:53:05.260Z,8.25
2022-10-13T14:56:34.168Z,7.88
2022-10-13T14:59:35.730Z,8.35
2022-10-13T15:02:37.312Z,8.38
2022-10-13T15:05:39.196Z,8.07
2022-10-13T15:08:41.110Z,8.20
2022-10-13T15:11:42.637Z,7.75
2022-10-13T15:14:44.074Z,7.13
2022-10-13T15:17:45.516Z,7.07
2022-10-13T15:20:47.842Z,7.90
2022-10-13T15:23:49.966Z,7.18
2022-10-13T15:29:52.697Z,7.20
2022-10-13T15:32:54.137Z,7.13
2022-10-13T15:35:55.544Z,7.65
2022-10-13T15:38:57.025Z,7.25
2022-10-13T15:41:58.556Z,7.40
2022-10-13T15:45:15.293Z,6.90
2022-10-13T15:48:16.691Z,7.35
2022-10-13T15:51:20.643Z,9.23
2022-10-13T15:54:22.375Z,9.02
2022-10-13T15:57:23.893Z,10.38
2022-10-13T16:00:25.355Z,8.93
2022-10-13T16:03:29.715Z,8.68
2022-10-13T16:06:31.222Z,8.68
2022-10-13T16:09:32.749Z,7.95
2022-10-13T16:12:34.172Z,8.55
2022-10-13T16:15:35.773Z,7.35
2022-10-13T16:18:38.648Z,7.60
2022-10-13T16:21:40.067Z,8.23
2022-10-13T16:24:42.540Z,8.18
2022-10-13T16:27:44.858Z,8.88
2022-10-13T16:30:46.336Z,8.80
2022-10-13T16:33:48.351Z,9.48
2022-10-13T16:36:50.470Z,9.82
2022-10-13T16:42:53.709Z,9.95
2022-10-13T16:46:00.016Z,10.13
2022-10-13T16:49:02.029Z,12.20
2022-10-13T16:52:03.444Z,13.05
2022-10-13T16:55:05.778Z,12.57
2022-10-13T16:58:07.440Z,10.48
2022-10-13T17:01:10.170Z,15.77
2022-10-13T17:04:11.957Z,16.42
2022-10-13T17:07:13.676Z,20.23
2022-10-13T17:10:15.453Z,20.13
2022-10-13T17:13:17.056Z,17.98
2022-10-13T17:16:19.670Z,19.00
2022-10-13T17:19:21.097Z,18.55
2022-10-13T17:22:22.794Z,17.20
2022-10-13T17:25:24.495Z,16.25
2022-10-13T17:28:26.780Z,14.02
2022-10-13T17:31:28.273Z,12.07
2022-10-13T17:34:29.710Z,12.43
2022-10-13T17:37:34.116Z,11.98
2022-10-13T17:40:36.332Z,13.05
2022-10-13T17:43:38.932Z,12.63
2022-10-13T17:46:40.405Z,12.90
2022-10-13T17:49:41.832Z,11.52
2022-10-13T17:52:45.561Z,12.60
2022-10-13T17:55:47.144Z,11.85
2022-10-13T17:58:51.847Z,11.30
2022-10-13T18:01:53.365Z,11.45
2022-10-13T18:04:54.917Z,12.07
2022-10-13T18:07:57.337Z,13.45
2022-10-13T18:11:11.172Z,12.20
2022-10-13T18:14:12.676Z,12.15
2022-10-13T18:17:15.899Z,12.02
2022-10-13T18:20:17.312Z,13.68
2022-10-13T18:23:21.467Z,14.13
2022-10-13T18:26:23.863Z,13.35
2022-10-13T18:29:25.320Z,13.63
2022-10-13T18:32:26.764Z,13.93
2022-10-13T18:35:32.239Z,13.10
2022-10-13T18:38:33.887Z,13.07
2022-10-13T18:41:37.255Z,13.85
2022-10-13T18:44:38.731Z,15.25
2022-10-13T18:47:40.171Z,14.82
2022-10-13T18:50:41.594Z,14.45
2022-10-13T18:53:45.113Z,14.07
2022-10-13T18:56:46.759Z,13.48
2022-10-13T18:59:48.176Z,12.30
2022-10-13T19:02:50.262Z,12.73
2022-10-13T19:05:51.645Z,12.43
2022-10-13T19:08:58.557Z,12.17
2022-10-13T19:12:00.051Z,12.27
2022-10-13T19:15:01.487Z,10.98
2022-10-13T19:18:02.934Z,11.32
2022-10-13T19:21:04.667Z,10.55
2022-10-13T19:24:07.361Z,10.10
2022-10-13T19:27:08.785Z,11.20
2022-10-13T19:30:11.318Z,10.88
2022-10-13T19:33:14.493Z,11.10
2022-10-13T19:36:30.209Z,11.02
2022-10-13T19:39:34.892Z,12.48
2022-10-13T19:42:36.453Z,13.02
2022-10-13T19:48:50.642Z,13.80
2022-10-13T19:51:53.976Z,13.73
2022-10-13T19:54:55.673Z,12.95
2022-10-13T19:57:57.178Z,10.70
2022-10-13T20:01:04.538Z,10.68
2022-10-13T20:04:07.461Z,9.90
2022-10-13T20:07:10.028Z,10.02
2022-10-13T20:10:11.424Z,9.95
2022-10-13T20:13:12.809Z,9.73
2022-10-13T20:16:17.300Z,9.50
2022-10-13T20:19:22.016Z,10.32
2022-10-13T20:22:23.433Z,9.60
2022-10-13T20:25:25.181Z,9.85
2022-10-13T20:28:26.676Z,9.50
2022-10-13T20:31:28.218Z,11.02
2022-10-13T20:34:30.509Z,10.02
2022-10-13T20:37:33.054Z,9.45
2022-10-13T20:40:34.486Z,10.07
2022-10-13T20:43:37.025Z,9.82
2022-10-13T20:46:38.609Z,9.52
2022-10-13T20:49:40.230Z,9.35
2022-10-13T20:52:42.105Z,9.07
2022-10-13T20:55:44.698Z,9.52
2022-10-13T20:58:46.694Z,9.40
2022-10-13T21:01:48.571Z,9.30
2022-10-13T21:04:50.020Z,9.43
2022-10-13T21:07:51.497Z,8.90
2022-10-13T21:10:53.026Z,9.50
2022-10-13T21:13:57.364Z,9.63
2022-10-13T21:16:59.030Z,9.70
2022-10-13T21:20:00.483Z,9.13
2022-10-13T21:23:05.658Z,9.73
2022-10-13T21:26:08.726Z,9.80
2022-10-13T21:29:10.273Z,9.00
2022-10-13T21:32:11.702Z,8.02
2022-10-13T21:35:14.856Z,8.63
2022-10-13T21:38:16.374Z,8.95
2022-10-13T21:41:21.811Z,9.15
2022-10-13T21:44:23.318Z,8.88
2022-10-13T21:47:28.837Z,8.40
2022-10-13T21:50:30.399Z,8.40
2022-10-13T21:53:31.808Z,7.90
2022-10-13T21:56:34.032Z,7.97
2022-10-13T22:02:36.804Z,7.68
2022-10-13T22:05:38.263Z,9.00
2022-10-13T22:08:41.318Z,8.85
2022-10-13T22:11:56.504Z,8.65
2022-10-13T22:14:58.115Z,8.18
2022-10-13T22:17:59.529Z,8.25
2022-10-13T22:21:06.388Z,8.40
2022-10-13T22:24:10.347Z,8.25
2022-10-13T22:27:11.766Z,7.80
2022-10-13T22:30:13.495Z,8.82
2022-10-13T22:33:14.957Z,8.55
2022-10-13T22:36:18.500Z,8.13
2022-10-13T22:39:20.617Z,7.65
2022-10-13T22:45:23.610Z,7.90
2022-10-13T22:48:25.039Z,8.02
2022-10-13T22:51:28.928Z,8.53
2022-10-13T22:54:30.610Z,7.93
2022-10-13T22:57:32.064Z,8.30
2022-10-13T23:00:38.074Z,7.97
2022-10-13T23:03:40.465Z,8.48
2022-10-13T23:06:41.957Z,8.15
2022-10-13T23:09:43.373Z,8.32
2022-10-13T23:12:44.957Z,8.25
2022-10-13T23:15:47.421Z,8.00
2022-10-13T23:18:49.308Z,8.25
2022-10-13T23:21:59.737Z,7.63
2022-10-13T23:25:01.239Z,8.02
2022-10-13T23:28:03.100Z,7.40
2022-10-13T23:31:07.762Z,7.53
2022-10-13T23:34:09.828Z,7.97
2022-10-13T23:37:11.395Z,7.82
2022-10-13T23:40:12.844Z,7.05
2022-10-13T23:43:14.287Z,7.55
2022-10-13T23:46:16.130Z,7.28
2022-10-13T23:49:17.569Z,7.75
2022-10-13T23:52:22.064Z,7.15
2022-10-13T23:55:23.556Z,7.10
2022-10-13T23:58:25.074Z,7.15
